Time;durP1;ratioP1;P1;durP2;ratioP2;P2;SDS_P1;SDS_P2;PMS_P1;PMS_P2;Temp;Humidity;BMP_temperature;BMP_pressure;BME280_temperature;BME280_humidity;BME280_pressure;Samples;Min_cycle;Max_cycle;Signal;HPM_P1;HPM_P2
2022/05/05 00:01:14;;;;;;;4.40;2.75;;;19.00;38.70;;;16.89;41.90;101283.09;12245459;19;20375;-80
2022/05/05 00:05:15;;;;;;;2.67;2.47;;;18.90;38.70;;;16.91;41.86;101290.91;12245339;19;20018;-80
2022/05/05 00:09:17;;;;;;;2.60;2.30;;;18.90;38.90;;;16.67;42.14;101260.03;12241185;19;20071;-80
2022/05/05 00:17:39;;;;;;;2.40;2.20;;;18.80;39.30;;;16.65;41.89;101277.75;12243678;19;20495;-79
2022/05/05 00:21:41;;;;;;;2.58;2.38;;;18.70;38.80;;;16.57;42.19;101285.38;12242915;19;20110;-80
2022/05/05 00:25:43;;;;;;;2.63;2.15;;;18.60;39.00;;;16.48;42.38;101275.50;12243044;19;20011;-80
2022/05/05 00:29:44;;;;;;;3.80;2.40;;;18.60;39.10;;;16.26;42.47;101257.72;12244547;19;20019;-80
2022/05/05 00:33:46;;;;;;;2.67;2.47;;;18.30;39.00;;;16.27;42.60;101267.31;12240012;19;20468;-80
2022/05/05 00:37:47;;;;;;;2.45;2.28;;;18.40;39.20;;;16.11;42.79;101267.53;12239167;19;20021;-79
2022/05/05 00:41:50;;;;;;;3.72;2.40;;;18.20;39.20;;;16.03;42.83;101256.69;12242168;19;20010;-79
2022/05/05 00:45:52;;;;;;;2.03;1.92;;;18.20;39.30;;;15.99;42.67;101260.50;12241401;19;20019;-79
2022/05/05 00:49:54;;;;;;;2.22;2.08;;;18.10;39.50;;;15.82;42.86;101228.25;12240228;19;20016;-79
2022/05/05 00:53:56;;;;;;;3.20;2.90;;;18.10;39.60;;;15.70;43.13;101222.06;12239455;19;20011;-79
2022/05/05 00:58:00;;;;;;;6.07;2.30;;;18.00;39.60;;;15.77;43.12;101254.09;12240435;19;20368;-79
2022/05/05 01:02:02;;;;;;;3.03;2.25;;;18.00;39.60;;;15.35;43.11;101182.31;12240514;19;20006;-79
2022/05/05 01:06:06;;;;;;;2.13;1.90;;;17.90;39.70;;;15.73;43.19;101226.25;12239362;19;20053;-79
2022/05/05 01:10:09;;;;;;;2.97;2.00;;;17.90;39.90;;;15.86;43.23;101237.63;12242015;19;20018;-79
2022/05/05 01:14:10;;;;;;;3.00;2.42;;;17.90;40.00;;;15.91;43.11;101246.06;12239226;19;20014;-79
2022/05/05 01:18:12;;;;;;;2.70;2.08;;;17.80;39.90;;;16.08;43.03;101251.94;12240416;19;20018;-79
2022/05/05 01:22:17;;;;;;;2.38;2.17;;;18.00;40.00;;;16.08;43.32;101236.16;12239527;19;20011;-79
2022/05/05 01:30:45;;;;;;;2.53;2.33;;;18.00;40.30;;;16.11;43.35;101235.94;12239382;19;20014;-79
2022/05/05 01:34:47;;;;;;;2.30;1.95;;;18.10;40.00;;;16.22;43.35;101254.44;12235851;19;20027;-79
2022/05/05 01:38:49;;;;;;;4.63;2.55;;;18.10;40.20;;;16.10;43.66;101234.25;12238686;19;20017;-79
2022/05/05 01:42:51;;;;;;;2.85;2.65;;;18.10;40.20;;;16.12;43.38;101242.88;12236484;19;20035;-79
2022/05/05 01:46:53;;;;;;;2.40;2.20;;;18.20;40.40;;;16.18;43.74;101258.28;12237074;19;20093;-79
2022/05/05 01:50:55;;;;;;;2.40;2.25;;;18.20;40.40;;;16.03;43.51;101247.00;12238457;19;20011;-79
2022/05/05 01:54:57;;;;;;;2.63;2.33;;;18.00;40.30;;;16.28;43.76;101280.41;12230862;19;20015;-80
2022/05/05 01:58:58;;;;;;;4.97;2.60;;;18.10;40.50;;;16.31;43.68;101290.72;12238016;19;20041;-79
2022/05/05 02:03:01;;;;;;;2.83;2.30;;;18.20;40.60;;;16.20;43.88;101279.22;12238720;19;20084;-79
2022/05/05 02:07:03;;;;;;;4.22;2.70;;;18.10;40.50;;;16.08;43.80;101273.03;12240724;19;20010;-79
2022/05/05 02:11:05;;;;;;;2.60;2.40;;;18.20;40.80;;;16.18;44.12;101297.78;12238991;19;20023;-79
2022/05/05 02:15:09;;;;;;;2.63;2.42;;;18.20;40.90;;;15.92;44.11;101268.81;12234858;19;20066;-79
2022/05/05 02:19:11;;;;;;;5.22;2.47;;;18.10;41.00;;;16.21;44.25;101308.13;12236684;19;20015;-79
2022/05/05 02:23:12;;;;;;;2.47;2.28;;;18.10;41.00;;;16.19;44.16;101307.38;12236394;19;21283;-79
2022/05/05 02:27:14;;;;;;;4.22;2.83;;;18.20;41.00;;;16.06;44.30;101296.00;12235802;19;20019;-80
2022/05/05 02:31:16;;;;;;;3.70;2.50;;;18.10;41.10;;;16.07;44.34;101289.81;12237748;19;20017;-79
2022/05/05 02:35:18;;;;;;;2.35;2.15;;;18.10;41.10;;;16.08;44.42;101300.22;12244915;19;20021;-79
2022/05/05 02:39:21;;;;;;;3.03;2.72;;;17.90;41.20;;;16.06;44.45;101312.63;12245769;19;20124;-79
2022/05/05 02:43:22;;;;;;;2.65;2.45;;;18.10;41.20;;;16.15;44.51;101316.47;12243889;19;20344;-79
2022/05/05 02:47:24;;;;;;;2.58;2.38;;;18.10;41.20;;;15.83;44.63;101268.63;12247480;19;20010;-80
2022/05/05 02:51:26;;;;;;;2.80;2.60;;;18.00;41.10;;;16.13;44.72;101328.88;12246060;19;20018;-79
2022/05/05 02:55:27;;;;;;;3.53;2.65;;;17.90;41.30;;;16.10;44.69;101337.00;12244857;19;20118;-79
2022/05/05 02:59:29;;;;;;;2.38;2.17;;;18.10;41.40;;;16.06;44.81;101339.00;12243697;19;20086;-79
2022/05/05 03:03:31;;;;;;;2.75;2.55;;;17.90;41.40;;;15.92;44.80;101312.75;12244762;19;20014;-79
2022/05/05 03:07:33;;;;;;;3.05;2.72;;;18.00;41.70;;;15.92;44.90;101320.66;12246395;19;20504;-79
2022/05/05 03:11:35;;;;;;;3.10;2.63;;;18.00;42.00;;;15.96;45.24;101342.34;12246868;19;20488;-79
2022/05/05 03:15:36;;;;;;;3.05;2.58;;;18.00;42.20;;;16.02;45.37;101358.59;12242159;19;20230;-79
2022/05/05 03:19:38;;;;;;;2.67;2.47;;;18.00;42.40;;;15.93;45.51;101346.91;12246218;19;20298;-79
2022/05/05 03:23:40;;;;;;;2.67;2.47;;;18.00;42.60;;;16.03;45.42;101354.19;12244753;19;20039;-79
2022/05/05 03:27:41;;;;;;;3.20;2.70;;;17.90;42.70;;;15.70;45.60;101294.94;12249705;19;20030;-79
2022/05/05 03:31:43;;;;;;;3.72;2.53;;;18.00;42.90;;;15.86;45.73;101331.63;12246422;19;20014;-78
2022/05/05 03:35:45;;;;;;;4.15;2.60;;;18.00;42.80;;;15.97;45.71;101368.59;12244702;19;20073;-78
2022/05/05 03:39:46;;;;;;;3.53;2.95;;;18.00;43.00;;;15.93;45.94;101360.09;12245568;19;20025;-78
2022/05/05 03:43:49;;;;;;;3.80;2.88;;;17.80;42.90;;;15.86;46.09;101350.91;12241984;19;20463;-79
2022/05/05 03:47:50;;;;;;;5.18;2.67;;;17.90;43.10;;;15.83;46.35;101363.44;12243512;19;20029;-79
2022/05/05 03:51:52;;;;;;;2.30;2.10;;;17.90;43.10;;;15.82;46.25;101367.84;12247121;19;20022;-79
2022/05/05 03:55:54;;;;;;;2.00;1.90;;;17.80;43.40;;;15.69;46.49;101346.75;12242379;19;20014;-78
2022/05/05 03:59:55;;;;;;;2.72;2.20;;;17.80;43.40;;;15.69;46.52;101369.63;12247609;19;20031;-78
2022/05/05 04:03:57;;;;;;;3.83;2.35;;;17.80;43.50;;;15.39;46.77;101325.94;12244132;19;20022;-79
2022/05/05 04:08:04;;;;;;;3.38;2.78;;;17.70;43.70;;;15.72;47.00;101377.31;12246687;19;20056;-78
2022/05/05 04:12:07;;;;;;;2.90;2.60;;;17.80;43.80;;;15.39;46.95;101318.03;12246622;19;20010;-79
2022/05/05 04:16:10;;;;;;;5.45;2.85;;;17.70;44.00;;;15.32;47.00;101327.25;12242772;19;20027;-79
2022/05/05 04:20:12;;;;;;;3.03;2.15;;;17.60;44.20;;;15.28;47.17;101336.28;12247364;19;20022;-79
2022/05/05 04:24:13;;;;;;;5.15;3.38;;;17.50;44.40;;;15.37;47.39;101361.19;12241247;19;20042;-79
2022/05/05 04:28:16;;;;;;;3.85;2.63;;;17.50;44.40;;;15.31;47.40;101365.06;12242670;19;20019;-79
2022/05/05 04:32:17;;;;;;;3.28;2.40;;;17.40;44.70;;;15.24;47.55;101376.91;12240997;19;20372;-80
2022/05/05 04:36:19;;;;;;;2.58;2.35;;;17.30;44.70;;;14.83;47.58;101322.53;12234743;19;20014;-80
2022/05/05 04:40:21;;;;;;;2.42;2.28;;;17.30;44.70;;;14.86;47.73;101346.00;12237683;19;20091;-80
2022/05/05 04:44:23;;;;;;;2.38;2.17;;;17.30;44.90;;;15.24;47.74;101416.38;12233937;19;20015;-80
2022/05/05 04:48:24;;;;;;;3.78;2.72;;;17.30;45.00;;;15.22;47.86;101405.94;12238276;19;20073;-80
2022/05/05 04:52:27;;;;;;;10.73;5.25;;;17.20;45.20;;;15.18;47.95;101404.47;12237234;19;20783;-80
2022/05/05 04:56:29;;;;;;;3.67;2.45;;;17.10;45.20;;;15.14;47.84;101402.13;12234623;19;20033;-80
2022/05/05 05:00:31;;;;;;;2.88;2.63;;;17.20;45.30;;;14.81;48.16;101350.72;12239658;19;20015;-80
2022/05/05 05:04:33;;;;;;;2.63;2.42;;;17.10;45.30;;;15.06;48.08;101394.69;12237637;19;20015;-80
2022/05/05 05:08:35;;;;;;;3.15;2.58;;;17.00;45.50;;;15.11;48.35;101404.94;12234955;19;20007;-80
2022/05/05 05:12:37;;;;;;;2.83;2.60;;;17.10;45.50;;;15.01;48.16;101387.13;12236125;19;20015;-80
2022/05/05 05:16:38;;;;;;;3.38;2.92;;;17.10;45.40;;;14.93;48.39;101386.75;12233073;19;20014;-80
2022/05/05 05:20:41;;;;;;;2.95;2.70;;;17.10;45.70;;;15.08;48.49;101424.41;12237523;19;20690;-80
2022/05/05 05:24:42;;;;;;;2.90;2.50;;;17.00;46.00;;;14.65;48.50;101361.34;12234156;19;20077;-80
2022/05/05 05:28:44;;;;;;;2.67;2.47;;;17.00;46.40;;;14.97;48.69;101409.28;12237436;19;20364;-80
2022/05/05 05:32:46;;;;;;;3.35;2.90;;;16.90;46.30;;;15.18;48.82;101438.66;12234455;19;20784;-80
2022/05/05 05:36:50;;;;;;;4.70;2.92;;;17.10;46.60;;;15.23;48.80;101447.13;12235595;19;20032;-80
2022/05/05 05:40:52;;;;;;;3.50;3.20;;;17.00;46.30;;;15.18;48.87;101446.56;12237234;19;20014;-80
2022/05/05 05:44:53;;;;;;;2.45;2.25;;;17.10;46.50;;;15.24;48.83;101454.06;12234149;19;20007;-80
2022/05/05 05:48:56;;;;;;;3.20;2.90;;;17.10;46.30;;;15.33;49.04;101480.72;12235673;19;20013;-80
2022/05/05 05:52:59;;;;;;;3.13;2.38;;;17.20;46.40;;;15.22;48.97;101469.09;12236700;19;20014;-80
2022/05/05 05:57:00;;;;;;;2.60;2.20;;;17.20;46.40;;;15.38;48.97;101494.44;12234749;19;20041;-80
2022/05/05 06:01:02;;;;;;;4.47;2.70;;;17.30;46.50;;;15.31;49.25;101483.47;12237998;19;20039;-80
2022/05/05 06:05:06;;;;;;;3.88;2.63;;;17.30;46.70;;;15.24;49.36;101466.38;12235707;19;20011;-80
2022/05/05 06:09:08;;;;;;;3.45;2.58;;;17.40;46.70;;;15.43;49.12;101501.09;12234411;19;20023;-81
2022/05/05 06:13:10;;;;;;;3.00;2.70;;;17.40;46.40;;;15.46;49.13;101502.72;12235150;19;20015;-81
2022/05/05 06:17:11;;;;;;;4.38;2.72;;;17.50;46.20;;;15.34;49.19;101480.66;12235638;19;20031;-81
2022/05/05 06:21:13;;;;;;;4.53;2.40;;;17.40;46.30;;;15.34;49.15;101483.28;12234934;19;20094;-81
2022/05/05 06:25:15;;;;;;;2.97;2.67;;;17.50;46.40;;;15.40;49.29;101492.56;12231977;19;20015;-81
2022/05/05 06:29:17;;;;;;;2.72;2.47;;;17.50;46.70;;;15.42;49.50;101498.59;12233509;19;20022;-80
2022/05/05 06:33:19;;;;;;;2.78;2.33;;;17.30;46.60;;;15.31;49.30;101478.22;12229867;19;20132;-81
2022/05/05 06:37:22;;;;;;;2.50;2.30;;;17.30;46.30;;;15.56;49.46;101508.25;12233314;19;20418;-81
2022/05/05 06:41:24;;;;;;;3.25;2.80;;;17.40;46.30;;;15.65;49.29;101508.47;12230439;19;20272;-80
2022/05/05 06:45:26;;;;;;;4.97;2.72;;;17.50;46.40;;;15.46;49.48;101479.84;12234322;19;20018;-80
2022/05/05 06:49:28;;;;;;;3.25;2.45;;;17.40;46.20;;;15.65;49.43;101518.19;12231375;19;20014;-81
2022/05/05 06:53:29;;;;;;;3.10;2.53;;;17.50;46.50;;;15.75;49.48;101521.94;12225668;19;20018;-81
2022/05/05 06:57:32;;;;;;;4.03;2.83;;;17.60;46.80;;;15.74;49.54;101516.78;12232115;19;20091;-81
2022/05/05 07:05:53;;;;;;;2.70;2.30;;;17.80;46.30;;;16.01;49.34;101541.31;12233641;19;20031;-81
2022/05/05 07:14:16;;;;;;;4.55;2.92;;;18.00;46.30;;;16.07;49.35;101535.66;12228843;19;20500;-82
2022/05/05 07:18:18;;;;;;;5.90;2.97;;;18.10;45.90;;;16.30;49.26;101549.13;12235877;19;20033;-80
2022/05/05 07:22:20;;;;;;;3.17;2.83;;;18.10;46.20;;;16.45;49.41;101550.75;12241248;19;20354;-80
2022/05/05 07:26:22;;;;;;;2.75;2.45;;;18.10;46.00;;;16.43;49.39;101525.44;12241817;19;20440;-81
2022/05/05 07:30:24;;;;;;;4.20;2.85;;;18.30;46.30;;;16.74;49.14;101551.44;12240681;19;20011;-80
2022/05/05 07:34:26;;;;;;;3.45;2.80;;;18.40;46.00;;;16.63;49.27;101505.59;12237991;19;20090;-80
2022/05/05 07:38:28;;;;;;;6.05;2.90;;;18.70;46.40;;;17.14;49.27;101568.97;12242026;19;20042;-80
2022/05/05 07:42:30;;;;;;;5.03;2.95;;;18.80;46.10;;;17.24;49.13;101581.41;12239041;19;20038;-81
2022/05/05 07:46:32;;;;;;;4.82;3.05;;;18.90;45.90;;;17.03;48.87;101524.84;12240196;19;20498;-81
2022/05/05 07:50:34;;;;;;;3.30;2.85;;;19.10;45.70;;;17.02;48.78;101520.53;12241628;19;20511;-80
2022/05/05 07:54:38;;;;;;;3.60;2.92;;;19.20;45.60;;;17.28;48.87;101554.81;12239161;19;20030;-80
2022/05/05 07:58:40;;;;;;;4.37;3.20;;;19.20;45.40;;;17.55;48.73;101583.69;12242123;19;20073;-80
2022/05/05 08:02:42;;;;;;;3.85;2.53;;;19.30;45.40;;;17.54;48.82;101580.22;12240651;19;20006;-80
2022/05/05 08:06:44;;;;;;;3.70;3.38;;;19.30;45.50;;;17.64;48.85;101581.25;12239337;19;20128;-80
2022/05/05 08:10:47;;;;;;;3.45;3.00;;;19.50;45.10;;;17.79;48.47;101597.00;12240914;19;20010;-80
2022/05/05 08:14:49;;;;;;;6.88;3.35;;;19.60;45.10;;;17.84;48.64;101584.28;12239052;19;20022;-80
2022/05/05 08:18:50;;;;;;;6.63;3.50;;;19.60;45.50;;;17.95;48.90;101565.03;12240183;19;20024;-80
2022/05/05 08:22:52;;;;;;;4.82;4.00;;;19.80;45.60;;;18.30;48.76;101596.78;12238569;19;20407;-80
2022/05/05 08:31:15;;;;;;;3.40;3.10;;;19.90;44.80;;;18.31;48.16;101601.97;12239364;19;20010;-81
2022/05/05 08:35:16;;;;;;;4.57;3.30;;;20.20;44.50;;;18.33;48.43;101601.84;12235479;19;20018;-81
2022/05/05 08:39:18;;;;;;;5.80;3.70;;;20.50;44.50;;;18.13;48.47;101546.00;12236371;19;20495;-80
2022/05/05 08:43:20;;;;;;;3.85;3.45;;;20.20;44.50;;;18.56;48.32;101595.69;12235421;19;20109;-80
2022/05/05 08:47:26;;;;;;;3.60;3.30;;;20.40;44.60;;;18.68;47.95;101583.34;12235801;19;20505;-80
2022/05/05 08:51:30;;;;;;;;;;;20.50;44.30;;;19.05;47.79;101603.56;12239831;19;20025;-80
2022/05/05 08:55:32;;;;;;;3.75;3.38;;;20.70;44.20;;;19.08;47.59;101588.25;12235082;19;20229;-81
2022/05/05 08:59:34;;;;;;;5.05;3.17;;;20.70;44.00;;;19.18;47.92;101580.47;12237848;19;20437;-81
2022/05/05 09:03:37;;;;;;;4.20;3.22;;;21.00;44.10;;;19.38;47.67;101594.78;12236573;19;20438;-81
2022/05/05 09:07:52;;;;;;;6.10;3.30;;;21.10;43.80;;;19.61;47.66;101601.75;12238020;19;20018;-81
2022/05/05 09:12:20;;;;;;;4.65;3.70;;;21.10;43.70;;;19.64;47.30;101569.72;12236021;19;20018;-83
2022/05/05 09:16:28;;;;;;;3.95;3.10;;;21.40;43.90;;;19.81;47.04;101576.34;12234181;19;20483;-82
2022/05/05 09:20:36;;;;;;;4.55;3.90;;;21.50;43.60;;;19.98;47.19;101574.13;12234959;19;20037;-81
2022/05/05 09:24:43;;;;;;;3.78;3.47;;;21.70;43.60;;;20.15;47.19;101597.47;12234335;19;20127;-82
2022/05/05 09:28:45;;;;;;;5.07;3.38;;;21.90;43.10;;;20.24;46.79;101596.69;12237085;19;20014;-82
2022/05/05 09:32:47;;;;;;;3.55;3.25;;;22.00;42.80;;;20.39;46.68;101612.31;12236474;19;20025;-81
2022/05/05 09:36:49;;;;;;;3.63;3.20;;;22.00;42.40;;;20.39;46.52;101607.88;12233829;19;20022;-81
2022/05/05 09:41:03;;;;;;;14.95;3.47;;;22.20;42.30;;;20.37;46.47;101599.19;12235348;19;20464;-81
2022/05/05 09:45:18;;;;;;;4.88;2.97;;;22.20;42.40;;;20.41;45.98;101610.38;12234806;19;20414;-81
2022/05/05 09:49:20;;;;;;;4.20;3.17;;;22.20;41.80;;;20.48;46.16;101630.16;12237840;19;20023;-80
2022/05/05 09:57:45;;;;;;;3.22;2.92;;;22.30;41.90;;;20.48;46.21;101627.50;12234887;19;20029;-81
2022/05/05 10:01:50;;;;;;;3.10;2.75;;;22.30;41.90;;;20.48;45.77;101611.56;12233815;19;20463;-81
2022/05/05 10:05:54;;;;;;;4.05;3.25;;;22.60;41.70;;;20.63;45.62;101628.91;12235823;19;20010;-81
2022/05/05 10:09:56;;;;;;;4.78;3.25;;;22.30;41.40;;;20.70;45.83;101626.56;12237028;19;20034;-81
2022/05/05 10:14:04;;;;;;;3.35;2.70;;;22.50;41.20;;;20.87;45.42;101641.91;12231031;19;20015;-81
2022/05/05 10:18:06;;;;;;;3.33;2.60;;;22.50;41.00;;;20.94;45.34;101639.59;12235739;19;20344;-81
2022/05/05 10:22:31;;;;;;;5.22;3.03;;;22.70;41.20;;;21.10;45.30;101650.59;12232573;19;20025;-80
2022/05/05 10:26:33;;;;;;;4.03;2.80;;;22.70;41.10;;;21.13;45.42;101644.19;12232842;19;20022;-81
2022/05/05 10:30:36;;;;;;;3.38;2.35;;;22.90;41.20;;;20.89;45.42;101596.66;12232968;19;20015;-81
2022/05/05 10:34:40;;;;;;;4.40;3.53;;;22.90;41.20;;;21.05;44.90;101620.94;12230220;19;20485;-80
2022/05/05 10:38:42;;;;;;;5.40;3.17;;;23.00;40.80;;;21.11;44.97;101632.84;12232316;19;20047;-81
2022/05/05 10:42:50;;;;;;;6.32;3.50;;;23.10;40.70;;;21.15;44.77;101656.38;12232262;19;20362;-81
2022/05/05 10:47:02;;;;;;;4.63;2.90;;;23.00;40.60;;;21.02;44.93;101650.41;12232871;19;20077;-81
2022/05/05 10:51:05;;;;;;;5.07;3.40;;;22.90;40.50;;;20.99;44.97;101663.97;12233385;19;20022;-80
2022/05/05 10:55:43;;;;;;;5.68;3.20;;;22.80;40.50;;;20.91;45.00;101637.22;12239164;19;20086;-80
2022/05/05 11:00:19;;;;;;;4.40;2.70;;;22.80;40.70;;;21.01;45.16;101654.06;12243543;19;20102;-81
2022/05/05 11:04:30;;;;;;;4.05;3.00;;;22.80;40.90;;;20.95;44.74;101635.97;12239759;19;20018;-80
2022/05/05 11:08:33;;;;;;;4.03;2.75;;;22.90;40.50;;;21.00;45.04;101644.38;12242871;19;20078;-81
2022/05/05 11:12:35;;;;;;;4.00;3.00;;;22.70;40.50;;;20.96;44.85;101638.50;12241364;19;20479;-80
2022/05/05 11:25:19;;;;;;;3.70;2.85;;;22.90;40.10;;;21.08;44.52;101655.19;12243382;19;20018;-80
2022/05/05 11:29:20;;;;;;;3.78;3.35;;;22.80;40.10;;;21.23;44.23;101660.19;12241613;19;20014;-80
2022/05/05 11:33:23;;;;;;;5.43;2.90;;;22.90;40.20;;;21.28;44.21;101657.97;12241031;19;20019;-80
2022/05/05 11:37:27;;;;;;;3.95;2.65;;;23.00;40.20;;;21.34;44.24;101658.28;12241541;19;20018;-80
2022/05/05 11:41:30;;;;;;;4.80;2.72;;;23.00;39.90;;;21.36;44.17;101663.47;12240118;19;20030;-79
2022/05/05 11:45:35;;;;;;;5.43;3.05;;;23.10;39.80;;;21.57;43.99;101671.44;12240775;19;20607;-79
2022/05/05 11:49:38;;;;;;;3.22;2.90;;;23.20;39.80;;;21.48;43.86;101635.88;12241378;19;20022;-81
2022/05/05 11:53:40;;;;;;;11.07;3.08;;;23.30;39.40;;;21.72;43.64;101667.44;12238698;19;20151;-79
2022/05/05 11:57:45;;;;;;;4.30;3.00;;;23.40;39.10;;;21.77;43.36;101651.09;12241265;19;20018;-79
2022/05/05 12:01:46;;;;;;;5.40;3.00;;;23.40;38.60;;;21.80;43.21;101659.63;12241762;19;20021;-80
2022/05/05 12:05:52;;;;;;;4.80;2.72;;;23.40;38.40;;;21.69;43.03;101648.28;12239401;19;20027;-79
2022/05/05 12:09:56;;;;;;;4.35;2.75;;;23.50;38.20;;;21.37;42.53;101601.38;12240898;19;20082;-79
2022/05/05 12:14:06;;;;;;;4.45;2.72;;;23.50;38.20;;;21.67;42.88;101647.56;12237841;19;20029;-79
2022/05/05 12:18:15;;;;;;;3.90;2.13;;;23.50;38.40;;;21.81;42.72;101660.47;12239946;19;20009;-79
2022/05/05 12:22:37;;;;;;;3.88;2.78;;;23.50;38.70;;;21.91;42.58;101652.53;12236568;19;20018;-79
2022/05/05 12:26:39;;;;;;;4.13;2.55;;;23.60;38.30;;;21.91;42.41;101665.84;12234806;19;20527;-79
2022/05/05 12:30:43;;;;;;;4.05;2.83;;;23.60;38.20;;;21.85;42.61;101644.13;12239904;19;20361;-81
2022/05/05 12:34:47;;;;;;;2.58;2.33;;;23.60;38.40;;;21.92;42.22;101644.41;12234383;19;20018;-81
2022/05/05 12:38:49;;;;;;;3.22;2.80;;;23.70;38.10;;;22.01;42.42;101651.59;12236068;19;20010;-80
2022/05/05 12:42:50;;;;;;;6.10;2.55;;;23.70;37.70;;;22.03;42.10;101654.94;12234237;19;20751;-80
2022/05/05 12:46:52;;;;;;;3.13;2.80;;;23.70;37.70;;;21.69;41.89;101595.94;12236511;19;20044;-80
2022/05/05 12:50:54;;;;;;;3.42;2.35;;;23.70;37.80;;;21.99;42.10;101642.88;12237133;19;20021;-81
2022/05/05 13:03:37;;;;;;;2.85;2.53;;;23.80;37.50;;;21.97;41.83;101650.16;12237178;19;20492;-80
2022/05/05 13:07:39;;;;;;;4.47;2.28;;;23.80;37.60;;;21.99;41.88;101669.50;12238802;19;20014;-79
2022/05/05 13:11:47;;;;;;;2.90;2.20;;;23.90;37.70;;;21.92;41.38;101648.88;12237333;19;20070;-81
2022/05/05 13:15:49;;;;;;;5.53;2.60;;;23.80;37.40;;;21.93;41.95;101654.09;12235713;19;20047;-80
2022/05/05 13:19:50;;;;;;;3.47;2.22;;;23.90;37.60;;;21.62;41.72;101608.91;12237401;19;20018;-81
2022/05/05 13:23:52;;;;;;;2.63;2.20;;;23.60;37.40;;;21.84;41.70;101654.88;12236196;19;20010;-81
2022/05/05 13:27:54;;;;;;;3.17;2.58;;;23.70;37.20;;;21.64;41.57;101630.91;12237484;19;20018;-81
2022/05/05 13:31:56;;;;;;;2.65;2.45;;;23.60;37.40;;;21.56;41.64;101620.09;12235967;19;20102;-80
2022/05/05 13:35:59;;;;;;;3.95;2.90;;;23.60;37.40;;;21.64;41.57;101622.09;12232888;19;20026;-80
2022/05/05 13:40:01;;;;;;;4.15;2.42;;;23.60;37.20;;;21.80;41.58;101650.81;12234119;19;20015;-81
2022/05/05 13:44:04;;;;;;;3.70;2.28;;;23.60;37.40;;;21.67;41.64;101620.97;12231751;19;20018;-81
2022/05/05 13:48:05;;;;;;;5.65;2.92;;;23.60;37.40;;;21.78;41.19;101626.19;12235055;19;20398;-81
2022/05/05 13:52:07;;;;;;;4.35;2.40;;;23.60;37.20;;;21.92;41.05;101635.59;12232997;19;20035;-81
2022/05/05 13:56:12;;;;;;;3.90;2.53;;;23.50;37.20;;;22.03;40.98;101651.44;12232497;19;20021;-80
2022/05/05 14:00:15;;;;;;;2.50;2.30;;;23.60;37.10;;;21.75;41.17;101616.66;12233097;19;20459;-81
2022/05/05 14:04:17;;;;;;;3.25;2.28;;;23.70;37.20;;;21.90;41.28;101637.53;12234029;19;20022;-81
2022/05/05 14:12:39;;;;;;;2.28;2.00;;;23.70;36.90;;;21.81;41.18;101649.84;12233125;19;19999;-81
2022/05/05 14:16:41;;;;;;;2.45;2.25;;;23.70;36.70;;;21.67;40.91;101626.28;12231892;19;20503;-81
2022/05/05 14:20:43;;;;;;;4.47;2.45;;;23.50;36.40;;;21.68;40.79;101633.28;12233826;19;20325;-81
2022/05/05 14:24:44;;;;;;;3.15;2.28;;;23.50;36.50;;;21.69;40.67;101634.97;12227161;19;20019;-81
2022/05/05 14:28:46;;;;;;;8.90;2.40;;;23.50;36.60;;;21.72;40.36;101637.38;12240584;19;20002;-80
2022/05/05 14:32:48;;;;;;;2.70;2.28;;;23.60;36.50;;;21.57;40.33;101629.72;12231917;19;20015;-81
2022/05/05 14:36:50;;;;;;;3.10;2.58;;;23.40;36.40;;;21.57;40.46;101637.72;12238593;19;20019;-80
2022/05/05 14:40:52;;;;;;;2.72;1.88;;;23.50;36.50;;;21.63;40.37;101650.50;12242169;19;20019;-81
2022/05/05 14:44:53;;;;;;;3.67;2.03;;;23.50;36.70;;;21.63;40.40;101655.81;12239009;19;20014;-81
2022/05/05 14:48:55;;;;;;;3.33;2.17;;;23.40;36.60;;;21.43;40.30;101615.00;12243562;19;20025;-80
2022/05/05 14:52:56;;;;;;;3.08;1.95;;;23.40;36.40;;;21.53;40.42;101657.56;12243422;19;20077;-80
2022/05/05 14:56:59;;;;;;;3.83;2.33;;;23.30;36.40;;;21.39;40.60;101629.53;12237632;19;20014;-80
2022/05/05 15:01:00;;;;;;;6.20;2.75;;;23.20;36.30;;;21.53;40.25;101657.56;12240891;19;20392;-80
2022/05/05 15:05:02;;;;;;;4.10;2.50;;;23.40;36.40;;;21.38;40.52;101629.66;12239347;19;20048;-80
2022/05/05 15:09:05;;;;;;;2.95;2.10;;;23.60;36.50;;;21.39;40.25;101640.16;12242131;19;20026;-80
2022/05/05 15:13:06;;;;;;;2.40;2.20;;;23.30;36.50;;;21.14;39.93;101603.38;12238798;19;20511;-80
2022/05/05 15:17:08;;;;;;;3.10;1.95;;;23.30;36.20;;;21.41;40.04;101664.81;12238313;19;20015;-80
2022/05/05 15:21:09;;;;;;;4.25;2.22;;;23.20;36.00;;;21.36;40.10;101663.47;12242902;19;20023;-80
2022/05/05 15:25:12;;;;;;;3.13;1.90;;;23.30;36.00;;;21.34;39.97;101663.59;12244834;19;20011;-80
2022/05/05 15:29:15;;;;;;;4.57;2.25;;;23.20;36.00;;;21.36;40.15;101661.66;12234568;19;20496;-80
2022/05/05 15:33:17;;;;;;;5.50;1.73;;;23.10;36.00;;;21.33;39.82;101661.06;12241807;19;20022;-80
2022/05/05 15:37:19;;;;;;;2.13;1.85;;;23.20;36.00;;;21.13;40.00;101628.25;12231502;19;20018;-80
2022/05/05 15:41:20;;;;;;;3.97;2.60;;;23.00;35.90;;;21.11;39.93;101636.34;12236663;19;20018;-79
2022/05/05 15:45:22;;;;;;;3.50;2.70;;;23.10;35.90;;;20.97;39.68;101618.09;12237676;19;20094;-80
2022/05/05 15:49:24;;;;;;;6.30;3.53;;;23.00;35.90;;;21.14;39.60;101638.75;12238216;19;20022;-80
2022/05/05 15:53:25;;;;;;;5.35;3.80;;;23.00;35.90;;;21.21;39.52;101653.19;12224234;19;20077;-79
2022/05/05 15:57:27;;;;;;;6.63;4.47;;;22.80;35.70;;;21.13;39.58;101633.56;12233534;19;20014;-79
2022/05/05 16:01:28;;;;;;;6.57;5.10;;;23.00;35.80;;;21.20;39.42;101654.16;12233023;19;20570;-79
2022/05/05 16:05:30;;;;;;;5.70;4.53;;;23.00;35.80;;;21.27;39.34;101658.94;12238333;19;20029;-79
2022/05/05 16:09:32;;;;;;;5.55;3.08;;;23.00;35.50;;;21.07;39.66;101631.44;12239443;19;20018;-79
2022/05/05 16:13:34;;;;;;;4.03;2.03;;;23.00;35.70;;;21.08;39.41;101639.25;12239003;19;20014;-79
2022/05/05 16:17:37;;;;;;;2.03;1.90;;;22.90;35.50;;;21.13;39.38;101650.34;12240960;19;20021;-79
2022/05/05 16:21:39;;;;;;;3.15;1.98;;;22.80;35.40;;;21.19;39.07;101657.78;12241676;19;20014;-79
2022/05/05 16:30:07;;;;;;;3.95;1.65;;;22.90;35.40;;;21.05;38.97;101639.53;12242912;19;20429;-79
2022/05/05 16:34:09;;;;;;;1.80;1.50;;;22.90;35.40;;;21.14;39.11;101657.34;12238617;19;20082;-78
2022/05/05 16:38:10;;;;;;;1.88;1.63;;;22.90;35.50;;;21.00;39.13;101633.75;12239107;19;20010;-79
2022/05/05 16:42:12;;;;;;;1.40;1.30;;;22.90;35.50;;;21.10;39.06;101650.59;12237935;19;20015;-80
2022/05/05 16:46:13;;;;;;;2.65;1.70;;;22.90;35.30;;;21.09;38.79;101653.38;12238021;19;20017;-80
2022/05/05 16:50:21;;;;;;;2.13;1.33;;;22.80;35.30;;;21.05;38.98;101657.28;12234358;19;20034;-80
2022/05/05 16:54:23;;;;;;;2.65;1.48;;;22.90;35.30;;;20.98;39.00;101639.22;12234083;19;20018;-79
2022/05/05 16:58:26;;;;;;;1.35;1.25;;;22.90;35.30;;;21.17;38.82;101673.03;12235288;19;20010;-79
2022/05/05 17:02:28;;;;;;;1.67;1.58;;;22.90;35.10;;;21.11;39.00;101662.91;12222955;19;20023;-79
2022/05/05 17:06:30;;;;;;;3.10;1.75;;;22.90;35.30;;;21.18;38.92;101680.00;12234498;19;20476;-80
2022/05/05 17:10:34;;;;;;;2.33;1.13;;;22.90;35.00;;;21.09;38.79;101664.00;12234259;19;20086;-79
2022/05/05 17:14:35;;;;;;;2.22;1.35;;;22.90;35.30;;;21.05;38.53;101674.06;12229868;19;20010;-80
2022/05/05 17:18:37;;;;;;;2.22;1.40;;;22.90;34.90;;;20.98;38.69;101663.13;12233640;19;20010;-80
2022/05/05 17:22:40;;;;;;;1.95;1.20;;;23.10;34.90;;;20.72;38.39;101635.25;12236850;19;20010;-79
2022/05/05 17:26:42;;;;;;;1.73;1.35;;;22.70;34.60;;;21.01;38.27;101699.19;12233794;19;20044;-79
2022/05/05 17:30:43;;;;;;;3.20;1.33;;;22.80;34.70;;;20.81;38.57;101666.34;12237144;19;20021;-80